sensor_id;sensor_type;location;lat;lon;timestamp;P1;durP1;ratioP1;P2;durP2;ratioP2
69678;SDS011;56915;52.046;4.854;2022-07-05T00:01:30;18.67;;;11.07;;
69678;SDS011;56915;52.046;4.854;2022-07-05T00:03:57;15.80;;;11.00;;
69678;SDS011;56915;52.046;4.854;2022-07-05T00:06:24;17.27;;;11.30;;
69678;SDS011;56915;52.046;4.854;2022-07-05T00:08:51;16.17;;;10.93;;
69678;SDS011;56915;52.046;4.854;2022-07-05T00:11:17;16.50;;;11.23;;
69678;SDS011;56915;52.046;4.854;2022-07-05T00:13:44;15.48;;;10.73;;
69678;SDS011;56915;52.046;4.854;2022-07-05T00:16:11;16.52;;;10.25;;
69678;SDS011;56915;52.046;4.854;2022-07-05T00:18:38;14.27;;;9.80;;
69678;SDS011;56915;52.046;4.854;2022-07-05T00:21:05;15.10;;;10.18;;
69678;SDS011;56915;52.046;4.854;2022-07-05T00:23:32;15.82;;;10.80;;
69678;SDS011;56915;52.046;4.854;2022-07-05T00:25:58;17.65;;;11.02;;
69678;SDS011;56915;52.046;4.854;2022-07-05T00:28:25;16.00;;;10.48;;
69678;SDS011;56915;52.046;4.854;2022-07-05T00:30:52;17.30;;;10.70;;
69678;SDS011;56915;52.046;4.854;2022-07-05T00:33:19;17.10;;;11.10;;
69678;SDS011;56915;52.046;4.854;2022-07-05T00:35:46;18.05;;;11.85;;
69678;SDS011;56915;52.046;4.854;2022-07-05T00:38:12;21.60;;;12.70;;
69678;SDS011;56915;52.046;4.854;2022-07-05T00:40:39;16.63;;;11.60;;
69678;SDS011;56915;52.046;4.854;2022-07-05T00:43:06;20.33;;;11.85;;
69678;SDS011;56915;52.046;4.854;2022-07-05T00:45:33;18.08;;;12.07;;
69678;SDS011;56915;52.046;4.854;2022-07-05T00:48:00;21.83;;;12.30;;
69678;SDS011;56915;52.046;4.854;2022-07-05T00:50:26;16.80;;;12.32;;
69678;SDS011;56915;52.046;4.854;2022-07-05T00:52:54;17.73;;;11.73;;
69678;SDS011;56915;52.046;4.854;2022-07-05T00:55:22;19.35;;;11.10;;
69678;SDS011;56915;52.046;4.854;2022-07-05T00:57:49;16.10;;;11.25;;
69678;SDS011;56915;52.046;4.854;2022-07-05T01:00:16;17.77;;;11.43;;
69678;SDS011;56915;52.046;4.854;2022-07-05T01:02:44;16.92;;;11.13;;
69678;SDS011;56915;52.046;4.854;2022-07-05T01:05:11;18.60;;;11.75;;
69678;SDS011;56915;52.046;4.854;2022-07-05T01:07:38;19.83;;;11.70;;
69678;SDS011;56915;52.046;4.854;2022-07-05T01:10:05;15.82;;;10.30;;
69678;SDS011;56915;52.046;4.854;2022-07-05T01:12:32;17.83;;;10.85;;
69678;SDS011;56915;52.046;4.854;2022-07-05T01:14:59;17.17;;;11.60;;
69678;SDS011;56915;52.046;4.854;2022-07-05T01:17:26;17.65;;;11.40;;
69678;SDS011;56915;52.046;4.854;2022-07-05T01:19:53;17.40;;;11.75;;
69678;SDS011;56915;52.046;4.854;2022-07-05T01:22:21;18.05;;;11.65;;
69678;SDS011;56915;52.046;4.854;2022-07-05T01:24:51;16.50;;;11.77;;
69678;SDS011;56915;52.046;4.854;2022-07-05T01:27:19;19.52;;;11.98;;
69678;SDS011;56915;52.046;4.854;2022-07-05T01:29:49;19.15;;;12.20;;
69678;SDS011;56915;52.046;4.854;2022-07-05T01:32:17;17.88;;;12.20;;
69678;SDS011;56915;52.046;4.854;2022-07-05T01:34:44;19.02;;;12.10;;
69678;SDS011;56915;52.046;4.854;2022-07-05T01:37:12;20.15;;;12.40;;
69678;SDS011;56915;52.046;4.854;2022-07-05T01:39:39;19.05;;;12.30;;
69678;SDS011;56915;52.046;4.854;2022-07-05T01:42:06;19.70;;;13.07;;
69678;SDS011;56915;52.046;4.854;2022-07-05T01:44:33;21.88;;;13.23;;
69678;SDS011;56915;52.046;4.854;2022-07-05T01:47:03;19.17;;;12.85;;
69678;SDS011;56915;52.046;4.854;2022-07-05T01:49:36;22.15;;;13.15;;
69678;SDS011;56915;52.046;4.854;2022-07-05T01:52:08;21.55;;;13.13;;
69678;SDS011;56915;52.046;4.854;2022-07-05T01:54:38;22.60;;;13.52;;
69678;SDS011;56915;52.046;4.854;2022-07-05T01:57:07;24.27;;;13.60;;
69678;SDS011;56915;52.046;4.854;2022-07-05T01:59:34;22.10;;;13.85;;
69678;SDS011;56915;52.046;4.854;2022-07-05T02:02:03;19.67;;;13.48;;
69678;SDS011;56915;52.046;4.854;2022-07-05T02:04:31;23.83;;;14.25;;
69678;SDS011;56915;52.046;4.854;2022-07-05T02:07:03;21.65;;;13.27;;
69678;SDS011;56915;52.046;4.854;2022-07-05T02:09:31;20.95;;;13.02;;
69678;SDS011;56915;52.046;4.854;2022-07-05T02:11:58;22.05;;;13.85;;
69678;SDS011;56915;52.046;4.854;2022-07-05T02:14:25;22.92;;;13.98;;
69678;SDS011;56915;52.046;4.854;2022-07-05T02:16:52;26.43;;;15.27;;
69678;SDS011;56915;52.046;4.854;2022-07-05T02:19:19;25.30;;;15.23;;
69678;SDS011;56915;52.046;4.854;2022-07-05T02:21:47;23.58;;;14.63;;
69678;SDS011;56915;52.046;4.854;2022-07-05T02:24:14;23.20;;;14.10;;
69678;SDS011;56915;52.046;4.854;2022-07-05T02:26:40;24.23;;;15.20;;
69678;SDS011;56915;52.046;4.854;2022-07-05T02:29:07;24.80;;;15.57;;
69678;SDS011;56915;52.046;4.854;2022-07-05T02:31:34;25.75;;;15.45;;
69678;SDS011;56915;52.046;4.854;2022-07-05T02:34:01;24.33;;;15.65;;
69678;SDS011;56915;52.046;4.854;2022-07-05T02:36:28;27.83;;;15.23;;
69678;SDS011;56915;52.046;4.854;2022-07-05T02:38:54;24.50;;;14.88;;
69678;SDS011;56915;52.046;4.854;2022-07-05T02:41:21;25.73;;;14.80;;
69678;SDS011;56915;52.046;4.854;2022-07-05T02:43:48;30.10;;;17.38;;
69678;SDS011;56915;52.046;4.854;2022-07-05T02:46:17;26.23;;;15.95;;
69678;SDS011;56915;52.046;4.854;2022-07-05T02:48:44;24.58;;;15.57;;
69678;SDS011;56915;52.046;4.854;2022-07-05T02:51:11;24.92;;;15.02;;
69678;SDS011;56915;52.046;4.854;2022-07-05T02:53:38;24.90;;;16.10;;
69678;SDS011;56915;52.046;4.854;2022-07-05T02:56:05;26.20;;;15.45;;
69678;SDS011;56915;52.046;4.854;2022-07-05T02:58:32;26.85;;;15.80;;
69678;SDS011;56915;52.046;4.854;2022-07-05T03:00:59;23.63;;;15.13;;
69678;SDS011;56915;52.046;4.854;2022-07-05T03:03:26;28.95;;;15.75;;
69678;SDS011;56915;52.046;4.854;2022-07-05T03:05:53;26.35;;;16.45;;
69678;SDS011;56915;52.046;4.854;2022-07-05T03:08:19;24.48;;;14.95;;
69678;SDS011;56915;52.046;4.854;2022-07-05T03:10:47;22.17;;;14.32;;
69678;SDS011;56915;52.046;4.854;2022-07-05T03:13:14;21.95;;;14.50;;
69678;SDS011;56915;52.046;4.854;2022-07-05T03:15:41;19.48;;;12.30;;
69678;SDS011;56915;52.046;4.854;2022-07-05T03:18:08;17.07;;;11.13;;
69678;SDS011;56915;52.046;4.854;2022-07-05T03:20:36;14.30;;;10.07;;
69678;SDS011;56915;52.046;4.854;2022-07-05T03:23:03;14.55;;;9.90;;
69678;SDS011;56915;52.046;4.854;2022-07-05T03:25:29;14.60;;;10.02;;
69678;SDS011;56915;52.046;4.854;2022-07-05T03:27:56;15.93;;;10.48;;
69678;SDS011;56915;52.046;4.854;2022-07-05T03:30:23;15.55;;;9.98;;
69678;SDS011;56915;52.046;4.854;2022-07-05T03:32:50;14.77;;;10.35;;
69678;SDS011;56915;52.046;4.854;2022-07-05T03:35:17;13.00;;;9.02;;
69678;SDS011;56915;52.046;4.854;2022-07-05T03:37:44;12.48;;;8.57;;
69678;SDS011;56915;52.046;4.854;2022-07-05T03:40:11;17.13;;;11.20;;
69678;SDS011;56915;52.046;4.854;2022-07-05T03:42:37;18.33;;;11.60;;
69678;SDS011;56915;52.046;4.854;2022-07-05T03:45:04;22.05;;;13.70;;
69678;SDS011;56915;52.046;4.854;2022-07-05T03:47:31;20.45;;;12.85;;
69678;SDS011;56915;52.046;4.854;2022-07-05T03:49:58;16.08;;;10.18;;
69678;SDS011;56915;52.046;4.854;2022-07-05T03:52:25;15.25;;;10.90;;
69678;SDS011;56915;52.046;4.854;2022-07-05T03:54:52;14.67;;;10.57;;
69678;SDS011;56915;52.046;4.854;2022-07-05T03:57:19;15.57;;;10.73;;
69678;SDS011;56915;52.046;4.854;2022-07-05T03:59:46;13.73;;;10.10;;
69678;SDS011;56915;52.046;4.854;2022-07-05T04:02:14;13.55;;;9.63;;
69678;SDS011;56915;52.046;4.854;2022-07-05T04:04:40;18.40;;;11.50;;
69678;SDS011;56915;52.046;4.854;2022-07-05T04:07:07;16.80;;;12.13;;
69678;SDS011;56915;52.046;4.854;2022-07-05T04:09:34;20.92;;;13.23;;
69678;SDS011;56915;52.046;4.854;2022-07-05T04:12:01;22.35;;;14.18;;
69678;SDS011;56915;52.046;4.854;2022-07-05T04:14:27;18.00;;;12.52;;
69678;SDS011;56915;52.046;4.854;2022-07-05T04:16:55;17.13;;;12.10;;
69678;SDS011;56915;52.046;4.854;2022-07-05T04:19:22;16.55;;;10.93;;
69678;SDS011;56915;52.046;4.854;2022-07-05T04:21:49;14.13;;;9.82;;
69678;SDS011;56915;52.046;4.854;2022-07-05T04:24:16;16.50;;;11.18;;
69678;SDS011;56915;52.046;4.854;2022-07-05T04:26:42;14.90;;;10.93;;
69678;SDS011;56915;52.046;4.854;2022-07-05T04:29:09;17.83;;;11.70;;
69678;SDS011;56915;52.046;4.854;2022-07-05T04:31:36;17.83;;;12.60;;
69678;SDS011;56915;52.046;4.854;2022-07-05T04:34:03;23.27;;;14.88;;
69678;SDS011;56915;52.046;4.854;2022-07-05T04:36:30;25.67;;;16.48;;
69678;SDS011;56915;52.046;4.854;2022-07-05T04:38:57;26.55;;;16.90;;
69678;SDS011;56915;52.046;4.854;2022-07-05T04:41:24;22.88;;;15.63;;
69678;SDS011;56915;52.046;4.854;2022-07-05T04:43:50;23.05;;;15.75;;
69678;SDS011;56915;52.046;4.854;2022-07-05T04:46:17;23.70;;;16.08;;
69678;SDS011;56915;52.046;4.854;2022-07-05T04:48:45;22.70;;;16.02;;
69678;SDS011;56915;52.046;4.854;2022-07-05T04:51:11;24.02;;;15.75;;
69678;SDS011;56915;52.046;4.854;2022-07-05T04:53:38;22.88;;;14.77;;
69678;SDS011;56915;52.046;4.854;2022-07-05T04:56:05;22.50;;;14.90;;
69678;SDS011;56915;52.046;4.854;2022-07-05T04:58:32;23.60;;;15.82;;
69678;SDS011;56915;52.046;4.854;2022-07-05T05:01:00;20.70;;;15.00;;
69678;SDS011;56915;52.046;4.854;2022-07-05T05:03:27;23.33;;;15.63;;
69678;SDS011;56915;52.046;4.854;2022-07-05T05:05:53;23.08;;;15.82;;
69678;SDS011;56915;52.046;4.854;2022-07-05T05:08:20;27.33;;;16.30;;
69678;SDS011;56915;52.046;4.854;2022-07-05T05:10:47;22.98;;;15.43;;
69678;SDS011;56915;52.046;4.854;2022-07-05T05:13:14;24.38;;;16.95;;
69678;SDS011;56915;52.046;4.854;2022-07-05T05:15:41;23.33;;;15.80;;
69678;SDS011;56915;52.046;4.854;2022-07-05T05:18:08;24.23;;;16.75;;
69678;SDS011;56915;52.046;4.854;2022-07-05T05:20:34;24.48;;;16.67;;
69678;SDS011;56915;52.046;4.854;2022-07-05T05:23:06;22.40;;;15.18;;
69678;SDS011;56915;52.046;4.854;2022-07-05T05:25:33;21.70;;;15.48;;
69678;SDS011;56915;52.046;4.854;2022-07-05T05:28:01;21.55;;;15.68;;
69678;SDS011;56915;52.046;4.854;2022-07-05T05:30:28;21.52;;;15.15;;
69678;SDS011;56915;52.046;4.854;2022-07-05T05:32:55;23.35;;;15.30;;
69678;SDS011;56915;52.046;4.854;2022-07-05T05:35:22;23.08;;;15.43;;
69678;SDS011;56915;52.046;4.854;2022-07-05T05:37:51;20.92;;;15.20;;
69678;SDS011;56915;52.046;4.854;2022-07-05T05:40:23;19.75;;;14.10;;
69678;SDS011;56915;52.046;4.854;2022-07-05T05:42:51;19.27;;;13.73;;
69678;SDS011;56915;52.046;4.854;2022-07-05T05:45:20;18.42;;;13.02;;
69678;SDS011;56915;52.046;4.854;2022-07-05T05:47:49;16.35;;;12.93;;
69678;SDS011;56915;52.046;4.854;2022-07-05T05:50:18;17.02;;;12.25;;
69678;SDS011;56915;52.046;4.854;2022-07-05T05:52:49;17.05;;;11.60;;
69678;SDS011;56915;52.046;4.854;2022-07-05T05:55:17;15.40;;;10.27;;
69678;SDS011;56915;52.046;4.854;2022-07-05T05:57:49;15.27;;;10.60;;
69678;SDS011;56915;52.046;4.854;2022-07-05T06:00:17;14.80;;;11.27;;
69678;SDS011;56915;52.046;4.854;2022-07-05T06:02:45;14.93;;;10.27;;
69678;SDS011;56915;52.046;4.854;2022-07-05T06:05:12;14.80;;;10.25;;
69678;SDS011;56915;52.046;4.854;2022-07-05T06:07:46;13.25;;;9.82;;
69678;SDS011;56915;52.046;4.854;2022-07-05T06:10:24;13.68;;;9.88;;
69678;SDS011;56915;52.046;4.854;2022-07-05T06:12:56;12.80;;;9.43;;
69678;SDS011;56915;52.046;4.854;2022-07-05T06:15:24;12.55;;;9.25;;
69678;SDS011;56915;52.046;4.854;2022-07-05T06:17:51;13.05;;;9.23;;
69678;SDS011;56915;52.046;4.854;2022-07-05T06:20:20;12.35;;;8.75;;
69678;SDS011;56915;52.046;4.854;2022-07-05T06:22:52;13.68;;;8.60;;
69678;SDS011;56915;52.046;4.854;2022-07-05T06:25:19;12.60;;;8.20;;
69678;SDS011;56915;52.046;4.854;2022-07-05T06:27:51;10.18;;;7.43;;
69678;SDS011;56915;52.046;4.854;2022-07-05T06:30:20;14.18;;;7.90;;
69678;SDS011;56915;52.046;4.854;2022-07-05T06:32:49;10.93;;;7.15;;
69678;SDS011;56915;52.046;4.854;2022-07-05T06:35:20;10.60;;;7.30;;
69678;SDS011;56915;52.046;4.854;2022-07-05T06:37:48;10.87;;;7.30;;
69678;SDS011;56915;52.046;4.854;2022-07-05T06:40:18;9.77;;;7.00;;
69678;SDS011;56915;52.046;4.854;2022-07-05T06:42:47;8.40;;;6.80;;
69678;SDS011;56915;52.046;4.854;2022-07-05T06:45:14;7.18;;;4.25;;
69678;SDS011;56915;52.046;4.854;2022-07-05T06:47:42;5.70;;;3.60;;
69678;SDS011;56915;52.046;4.854;2022-07-05T06:50:09;5.70;;;3.30;;
69678;SDS011;56915;52.046;4.854;2022-07-05T06:52:37;5.57;;;3.60;;
69678;SDS011;56915;52.046;4.854;2022-07-05T06:55:08;7.63;;;3.65;;
69678;SDS011;56915;52.046;4.854;2022-07-05T06:57:35;6.32;;;3.40;;
69678;SDS011;56915;52.046;4.854;2022-07-05T07:00:03;4.30;;;3.00;;
69678;SDS011;56915;52.046;4.854;2022-07-05T07:02:51;4.33;;;2.77;;
69678;SDS011;56915;52.046;4.854;2022-07-05T07:05:18;5.63;;;2.90;;
69678;SDS011;56915;52.046;4.854;2022-07-05T07:07:55;4.40;;;3.13;;
69678;SDS011;56915;52.046;4.854;2022-07-05T07:10:43;2.20;;;2.00;;
69678;SDS011;56915;52.046;4.854;2022-07-05T07:13:13;6.00;;;2.20;;
69678;SDS011;56915;52.046;4.854;2022-07-05T07:15:39;3.10;;;2.40;;
69678;SDS011;56915;52.046;4.854;2022-07-05T07:18:11;3.35;;;2.20;;
69678;SDS011;56915;52.046;4.854;2022-07-05T07:20:38;3.30;;;1.60;;
69678;SDS011;56915;52.046;4.854;2022-07-05T07:23:04;5.85;;;1.67;;
69678;SDS011;56915;52.046;4.854;2022-07-05T07:25:31;3.45;;;1.98;;
69678;SDS011;56915;52.046;4.854;2022-07-05T07:27:58;5.00;;;2.30;;
69678;SDS011;56915;52.046;4.854;2022-07-05T07:30:26;3.95;;;1.67;;
69678;SDS011;56915;52.046;4.854;2022-07-05T07:32:54;2.83;;;1.70;;
69678;SDS011;56915;52.046;4.854;2022-07-05T07:35:21;3.47;;;1.45;;
69678;SDS011;56915;52.046;4.854;2022-07-05T07:37:48;2.20;;;1.50;;
69678;SDS011;56915;52.046;4.854;2022-07-05T07:40:17;1.77;;;1.30;;
69678;SDS011;56915;52.046;4.854;2022-07-05T07:42:44;1.90;;;1.20;;
69678;SDS011;56915;52.046;4.854;2022-07-05T07:45:11;3.75;;;1.63;;
69678;SDS011;56915;52.046;4.854;2022-07-05T07:47:37;2.72;;;1.40;;
69678;SDS011;56915;52.046;4.854;2022-07-05T07:50:07;3.38;;;1.40;;
69678;SDS011;56915;52.046;4.854;2022-07-05T07:52:35;2.73;;;1.20;;
69678;SDS011;56915;52.046;4.854;2022-07-05T07:55:04;2.55;;;1.48;;
69678;SDS011;56915;52.046;4.854;2022-07-05T07:57:32;2.33;;;1.40;;
69678;SDS011;56915;52.046;4.854;2022-07-05T08:00:00;2.47;;;1.30;;
69678;SDS011;56915;52.046;4.854;2022-07-05T08:02:27;2.75;;;1.33;;
69678;SDS011;56915;52.046;4.854;2022-07-05T08:04:54;1.92;;;1.20;;
69678;SDS011;56915;52.046;4.854;2022-07-05T08:07:21;1.83;;;1.15;;
69678;SDS011;56915;52.046;4.854;2022-07-05T08:09:48;2.03;;;1.00;;
69678;SDS011;56915;52.046;4.854;2022-07-05T08:12:16;5.57;;;1.20;;
69678;SDS011;56915;52.046;4.854;2022-07-05T08:14:44;2.85;;;1.02;;
69678;SDS011;56915;52.046;4.854;2022-07-05T08:17:13;4.28;;;1.13;;
69678;SDS011;56915;52.046;4.854;2022-07-05T08:19:41;2.10;;;1.10;;
69678;SDS011;56915;52.046;4.854;2022-07-05T08:22:27;2.13;;;1.00;;
69678;SDS011;56915;52.046;4.854;2022-07-05T08:24:56;3.60;;;1.15;;
69678;SDS011;56915;52.046;4.854;2022-07-05T08:27:23;1.90;;;0.93;;
69678;SDS011;56915;52.046;4.854;2022-07-05T08:29:50;2.22;;;0.82;;
69678;SDS011;56915;52.046;4.854;2022-07-05T08:32:18;5.43;;;1.15;;
69678;SDS011;56915;52.046;4.854;2022-07-05T08:34:45;2.47;;;1.20;;
69678;SDS011;56915;52.046;4.854;2022-07-05T08:37:13;4.55;;;1.00;;
69678;SDS011;56915;52.046;4.854;2022-07-05T08:39:41;3.35;;;1.10;;
69678;SDS011;56915;52.046;4.854;2022-07-05T08:42:08;2.40;;;1.05;;
69678;SDS011;56915;52.046;4.854;2022-07-05T08:44:37;1.73;;;1.00;;
69678;SDS011;56915;52.046;4.854;2022-07-05T08:47:09;3.55;;;1.00;;
69678;SDS011;56915;52.046;4.854;2022-07-05T08:49:38;2.17;;;0.93;;
69678;SDS011;56915;52.046;4.854;2022-07-05T08:52:11;2.83;;;1.10;;
69678;SDS011;56915;52.046;4.854;2022-07-05T08:54:39;3.55;;;1.38;;
69678;SDS011;56915;52.046;4.854;2022-07-05T08:57:06;2.78;;;1.10;;
69678;SDS011;56915;52.046;4.854;2022-07-05T08:59:38;3.08;;;1.15;;
69678;SDS011;56915;52.046;4.854;2022-07-05T09:02:12;2.97;;;1.10;;
69678;SDS011;56915;52.046;4.854;2022-07-05T09:57:40;3.95;;;1.20;;
69678;SDS011;56915;52.046;4.854;2022-07-05T10:16:35;3.92;;;1.30;;
69678;SDS011;56915;52.046;4.854;2022-07-05T10:23:52;3.65;;;1.10;;
69678;SDS011;56915;52.046;4.854;2022-07-05T10:33:42;2.50;;;1.20;;
69678;SDS011;56915;52.046;4.854;2022-07-05T10:37:16;3.42;;;1.00;;
69678;SDS011;56915;52.046;4.854;2022-07-05T10:40:36;2.45;;;1.10;;
69678;SDS011;56915;52.046;4.854;2022-07-05T10:43:58;2.15;;;0.85;;
69678;SDS011;56915;52.046;4.854;2022-07-05T10:50:23;4.35;;;1.00;;
69678;SDS011;56915;52.046;4.854;2022-07-05T10:56:40;3.55;;;1.40;;
69678;SDS011;56915;52.046;4.854;2022-07-05T11:00:10;2.85;;;1.02;;
69678;SDS011;56915;52.046;4.854;2022-07-05T11:06:40;1.67;;;0.93;;
69678;SDS011;56915;52.046;4.854;2022-07-05T11:09:58;2.20;;;1.00;;
69678;SDS011;56915;52.046;4.854;2022-07-05T11:12:38;2.17;;;1.23;;
69678;SDS011;56915;52.046;4.854;2022-07-05T11:15:35;2.33;;;1.20;;
69678;SDS011;56915;52.046;4.854;2022-07-05T11:18:49;2.63;;;0.75;;
69678;SDS011;56915;52.046;4.854;2022-07-05T11:22:06;1.92;;;0.90;;
69678;SDS011;56915;52.046;4.854;2022-07-05T11:24:49;0.80;;;0.73;;
69678;SDS011;56915;52.046;4.854;2022-07-05T11:27:27;2.88;;;0.90;;
69678;SDS011;56915;52.046;4.854;2022-07-05T11:30:23;4.75;;;1.00;;
69678;SDS011;56915;52.046;4.854;2022-07-05T11:33:09;2.65;;;0.93;;
69678;SDS011;56915;52.046;4.854;2022-07-05T11:36:24;3.92;;;0.88;;
69678;SDS011;56915;52.046;4.854;2022-07-05T11:42:14;2.40;;;0.85;;
69678;SDS011;56915;52.046;4.854;2022-07-05T11:45:01;1.73;;;0.77;;
69678;SDS011;56915;52.046;4.854;2022-07-05T11:47:40;2.13;;;0.90;;
69678;SDS011;56915;52.046;4.854;2022-07-05T11:50:12;1.15;;;0.80;;
69678;SDS011;56915;52.046;4.854;2022-07-05T11:52:47;4.55;;;0.60;;
69678;SDS011;56915;52.046;4.854;2022-07-05T11:55:33;4.10;;;0.90;;
69678;SDS011;56915;52.046;4.854;2022-07-05T11:58:08;2.00;;;0.80;;
69678;SDS011;56915;52.046;4.854;2022-07-05T12:00:36;1.90;;;0.80;;
69678;SDS011;56915;52.046;4.854;2022-07-05T12:03:10;1.50;;;0.80;;
69678;SDS011;56915;52.046;4.854;2022-07-05T12:05:40;0.90;;;0.60;;
69678;SDS011;56915;52.046;4.854;2022-07-05T12:08:08;2.60;;;0.70;;
69678;SDS011;56915;52.046;4.854;2022-07-05T12:10:36;3.13;;;0.88;;
69678;SDS011;56915;52.046;4.854;2022-07-05T12:13:42;7.70;;;1.00;;
69678;SDS011;56915;52.046;4.854;2022-07-05T12:16:10;3.80;;;0.90;;
69678;SDS011;56915;52.046;4.854;2022-07-05T12:18:47;1.25;;;0.70;;
69678;SDS011;56915;52.046;4.854;2022-07-05T12:21:27;3.10;;;0.80;;
69678;SDS011;56915;52.046;4.854;2022-07-05T12:23:54;1.13;;;0.50;;
69678;SDS011;56915;52.046;4.854;2022-07-05T12:26:21;0.97;;;0.70;;
69678;SDS011;56915;52.046;4.854;2022-07-05T12:28:49;2.25;;;0.88;;
69678;SDS011;56915;52.046;4.854;2022-07-05T12:31:23;2.85;;;0.70;;
69678;SDS011;56915;52.046;4.854;2022-07-05T12:33:53;1.10;;;0.70;;
69678;SDS011;56915;52.046;4.854;2022-07-05T12:36:50;3.17;;;0.75;;
69678;SDS011;56915;52.046;4.854;2022-07-05T12:39:20;2.60;;;0.83;;
69678;SDS011;56915;52.046;4.854;2022-07-05T12:41:47;1.38;;;0.88;;
69678;SDS011;56915;52.046;4.854;2022-07-05T12:44:18;1.27;;;0.80;;
69678;SDS011;56915;52.046;4.854;2022-07-05T12:46:47;1.30;;;1.00;;
69678;SDS011;56915;52.046;4.854;2022-07-05T12:49:23;1.70;;;0.90;;
69678;SDS011;56915;52.046;4.854;2022-07-05T12:52:03;2.03;;;0.83;;
69678;SDS011;56915;52.046;4.854;2022-07-05T12:54:35;1.48;;;0.90;;
69678;SDS011;56915;52.046;4.854;2022-07-05T12:57:32;1.23;;;0.60;;
69678;SDS011;56915;52.046;4.854;2022-07-05T13:00:18;1.73;;;0.80;;
69678;SDS011;56915;52.046;4.854;2022-07-05T13:02:45;1.77;;;1.20;;
69678;SDS011;56915;52.046;4.854;2022-07-05T13:05:20;2.10;;;1.30;;
69678;SDS011;56915;52.046;4.854;2022-07-05T13:07:49;2.22;;;0.90;;
69678;SDS011;56915;52.046;4.854;2022-07-05T13:10:20;1.52;;;0.60;;
69678;SDS011;56915;52.046;4.854;2022-07-05T13:12:48;1.45;;;0.80;;
69678;SDS011;56915;52.046;4.854;2022-07-05T13:15:18;1.55;;;0.80;;
69678;SDS011;56915;52.046;4.854;2022-07-05T13:17:47;1.23;;;0.90;;
69678;SDS011;56915;52.046;4.854;2022-07-05T13:20:15;2.05;;;0.90;;
69678;SDS011;56915;52.046;4.854;2022-07-05T13:25:41;3.55;;;1.00;;
69678;SDS011;56915;52.046;4.854;2022-07-05T13:28:14;4.32;;;1.20;;
69678;SDS011;56915;52.046;4.854;2022-07-05T13:31:01;1.40;;;0.80;;
69678;SDS011;56915;52.046;4.854;2022-07-05T13:33:46;1.20;;;0.80;;
69678;SDS011;56915;52.046;4.854;2022-07-05T13:36:24;1.08;;;0.80;;
69678;SDS011;56915;52.046;4.854;2022-07-05T13:46:10;6.97;;;1.00;;
69678;SDS011;56915;52.046;4.854;2022-07-05T13:48:52;1.67;;;0.90;;
69678;SDS011;56915;52.046;4.854;2022-07-05T13:51:31;2.50;;;0.90;;
69678;SDS011;56915;52.046;4.854;2022-07-05T13:54:12;2.08;;;0.88;;
69678;SDS011;56915;52.046;4.854;2022-07-05T14:00:27;2.37;;;1.10;;
69678;SDS011;56915;52.046;4.854;2022-07-05T14:04:00;1.42;;;1.20;;
69678;SDS011;56915;52.046;4.854;2022-07-05T14:07:20;5.10;;;1.15;;
69678;SDS011;56915;52.046;4.854;2022-07-05T14:10:09;3.67;;;0.85;;
69678;SDS011;56915;52.046;4.854;2022-07-05T14:13:16;2.22;;;1.30;;
69678;SDS011;56915;52.046;4.854;2022-07-05T14:16:23;4.97;;;1.60;;
69678;SDS011;56915;52.046;4.854;2022-07-05T14:22:59;12.32;;;1.60;;
69678;SDS011;56915;52.046;4.854;2022-07-05T14:25:35;3.28;;;1.35;;
69678;SDS011;56915;52.046;4.854;2022-07-05T14:28:42;2.47;;;1.17;;
69678;SDS011;56915;52.046;4.854;2022-07-05T14:31:26;2.23;;;1.10;;
69678;SDS011;56915;52.046;4.854;2022-07-05T14:34:10;1.45;;;1.20;;
69678;SDS011;56915;52.046;4.854;2022-07-05T14:36:39;3.15;;;1.20;;
69678;SDS011;56915;52.046;4.854;2022-07-05T14:39:06;1.30;;;1.10;;
69678;SDS011;56915;52.046;4.854;2022-07-05T14:41:33;1.30;;;1.10;;
69678;SDS011;56915;52.046;4.854;2022-07-05T14:44:10;3.17;;;1.20;;
69678;SDS011;56915;52.046;4.854;2022-07-05T14:46:37;3.05;;;1.20;;
69678;SDS011;56915;52.046;4.854;2022-07-05T14:49:04;2.15;;;1.30;;
69678;SDS011;56915;52.046;4.854;2022-07-05T14:51:31;2.15;;;1.30;;
69678;SDS011;56915;52.046;4.854;2022-07-05T14:54:00;2.17;;;1.50;;
69678;SDS011;56915;52.046;4.854;2022-07-05T14:56:30;5.63;;;1.20;;
69678;SDS011;56915;52.046;4.854;2022-07-05T14:59:00;3.55;;;1.33;;
69678;SDS011;56915;52.046;4.854;2022-07-05T15:01:26;2.15;;;1.33;;
69678;SDS011;56915;52.046;4.854;2022-07-05T15:04:11;3.72;;;1.60;;
69678;SDS011;56915;52.046;4.854;2022-07-05T15:06:48;5.53;;;1.50;;
69678;SDS011;56915;52.046;4.854;2022-07-05T15:09:16;3.33;;;1.50;;
69678;SDS011;56915;52.046;4.854;2022-07-05T15:11:45;2.35;;;1.23;;
69678;SDS011;56915;52.046;4.854;2022-07-05T15:14:15;2.88;;;1.27;;
69678;SDS011;56915;52.046;4.854;2022-07-05T15:16:48;2.35;;;1.10;;
69678;SDS011;56915;52.046;4.854;2022-07-05T15:19:17;2.67;;;1.30;;
69678;SDS011;56915;52.046;4.854;2022-07-05T15:21:49;2.40;;;1.50;;
69678;SDS011;56915;52.046;4.854;2022-07-05T15:24:20;3.45;;;1.70;;
69678;SDS011;56915;52.046;4.854;2022-07-05T15:26:53;1.30;;;1.20;;
69678;SDS011;56915;52.046;4.854;2022-07-05T15:29:37;3.97;;;1.50;;
69678;SDS011;56915;52.046;4.854;2022-07-05T15:32:04;3.20;;;1.80;;
69678;SDS011;56915;52.046;4.854;2022-07-05T15:34:32;5.47;;;1.97;;
69678;SDS011;56915;52.046;4.854;2022-07-05T15:37:02;4.90;;;1.73;;
69678;SDS011;56915;52.046;4.854;2022-07-05T15:39:35;2.45;;;1.60;;
69678;SDS011;56915;52.046;4.854;2022-07-05T15:42:06;4.38;;;1.88;;
69678;SDS011;56915;52.046;4.854;2022-07-05T15:44:33;2.90;;;1.38;;
69678;SDS011;56915;52.046;4.854;2022-07-05T15:47:00;1.73;;;1.30;;
69678;SDS011;56915;52.046;4.854;2022-07-05T15:49:32;2.35;;;1.65;;
69678;SDS011;56915;52.046;4.854;2022-07-05T15:51:59;2.97;;;1.33;;
69678;SDS011;56915;52.046;4.854;2022-07-05T15:54:27;4.53;;;1.50;;
69678;SDS011;56915;52.046;4.854;2022-07-05T15:56:58;2.47;;;1.30;;
69678;SDS011;56915;52.046;4.854;2022-07-05T15:59:25;4.03;;;1.50;;
69678;SDS011;56915;52.046;4.854;2022-07-05T16:01:53;2.92;;;1.45;;
69678;SDS011;56915;52.046;4.854;2022-07-05T16:04:21;2.63;;;1.25;;
69678;SDS011;56915;52.046;4.854;2022-07-05T16:06:55;3.15;;;1.35;;
69678;SDS011;56915;52.046;4.854;2022-07-05T16:09:25;3.92;;;1.40;;
69678;SDS011;56915;52.046;4.854;2022-07-05T16:11:52;5.00;;;1.40;;
69678;SDS011;56915;52.046;4.854;2022-07-05T16:14:19;2.58;;;1.25;;
69678;SDS011;56915;52.046;4.854;2022-07-05T16:16:49;1.60;;;0.82;;
69678;SDS011;56915;52.046;4.854;2022-07-05T16:19:19;3.28;;;1.30;;
69678;SDS011;56915;52.046;4.854;2022-07-05T16:21:46;3.05;;;1.30;;
69678;SDS011;56915;52.046;4.854;2022-07-05T16:24:18;3.63;;;1.50;;
69678;SDS011;56915;52.046;4.854;2022-07-05T16:26:47;3.00;;;1.63;;
69678;SDS011;56915;52.046;4.854;2022-07-05T16:29:25;3.78;;;1.58;;
69678;SDS011;56915;52.046;4.854;2022-07-05T16:31:52;2.00;;;1.23;;
69678;SDS011;56915;52.046;4.854;2022-07-05T16:34:20;1.83;;;1.40;;
69678;SDS011;56915;52.046;4.854;2022-07-05T16:36:47;2.87;;;1.73;;
69678;SDS011;56915;52.046;4.854;2022-07-05T16:39:15;3.20;;;1.40;;
69678;SDS011;56915;52.046;4.854;2022-07-05T16:41:41;3.45;;;1.52;;
69678;SDS011;56915;52.046;4.854;2022-07-05T16:44:09;1.83;;;1.30;;
69678;SDS011;56915;52.046;4.854;2022-07-05T16:46:35;4.03;;;1.40;;
69678;SDS011;56915;52.046;4.854;2022-07-05T16:49:03;2.07;;;1.20;;
69678;SDS011;56915;52.046;4.854;2022-07-05T16:51:30;2.35;;;1.40;;
69678;SDS011;56915;52.046;4.854;2022-07-05T16:53:57;2.72;;;1.48;;
69678;SDS011;56915;52.046;4.854;2022-07-05T16:56:25;2.92;;;1.40;;